sensor_id;sensor_type;location;lat;lon;timestamp;P1;durP1;ratioP1;P2;durP2;ratioP2
31906;SDS011;18455;50.858;13.662;2022-11-20T00:00:46;11.70;;;6.23;;
31906;SDS011;18455;50.858;13.662;2022-11-20T00:05:46;14.23;;;6.27;;
31906;SDS011;18455;50.858;13.662;2022-11-20T00:10:47;11.97;;;5.90;;
31906;SDS011;18455;50.858;13.662;2022-11-20T00:15:47;12.57;;;6.20;;
31906;SDS011;18455;50.858;13.662;2022-11-20T00:20:48;12.63;;;5.70;;
31906;SDS011;18455;50.858;13.662;2022-11-20T00:25:48;8.97;;;3.60;;
31906;SDS011;18455;50.858;13.662;2022-11-20T00:30:48;8.70;;;4.40;;
31906;SDS011;18455;50.858;13.662;2022-11-20T00:35:49;12.13;;;6.17;;
31906;SDS011;18455;50.858;13.662;2022-11-20T00:40:54;11.33;;;5.50;;
31906;SDS011;18455;50.858;13.662;2022-11-20T00:45:56;10.73;;;5.67;;
31906;SDS011;18455;50.858;13.662;2022-11-20T00:50:58;9.47;;;4.97;;
31906;SDS011;18455;50.858;13.662;2022-11-20T00:55:59;9.07;;;4.60;;
31906;SDS011;18455;50.858;13.662;2022-11-20T01:06:13;7.40;;;3.80;;
31906;SDS011;18455;50.858;13.662;2022-11-20T01:11:17;8.43;;;4.17;;
31906;SDS011;18455;50.858;13.662;2022-11-20T01:16:20;6.77;;;3.63;;
31906;SDS011;18455;50.858;13.662;2022-11-20T01:26:27;6.37;;;3.27;;
31906;SDS011;18455;50.858;13.662;2022-11-20T01:31:30;4.10;;;3.07;;
31906;SDS011;18455;50.858;13.662;2022-11-20T01:36:33;5.07;;;2.93;;
31906;SDS011;18455;50.858;13.662;2022-11-20T01:41:35;5.20;;;2.40;;
31906;SDS011;18455;50.858;13.662;2022-11-20T01:46:58;5.63;;;3.27;;
31906;SDS011;18455;50.858;13.662;2022-11-20T01:52:01;5.43;;;2.20;;
31906;SDS011;18455;50.858;13.662;2022-11-20T01:57:06;4.10;;;3.00;;
31906;SDS011;18455;50.858;13.662;2022-11-20T02:02:09;4.17;;;2.37;;
31906;SDS011;18455;50.858;13.662;2022-11-20T02:07:09;5.10;;;2.43;;
31906;SDS011;18455;50.858;13.662;2022-11-20T02:12:10;2.73;;;2.37;;
31906;SDS011;18455;50.858;13.662;2022-11-20T02:17:30;2.97;;;2.10;;
31906;SDS011;18455;50.858;13.662;2022-11-20T02:22:33;4.10;;;2.20;;
31906;SDS011;18455;50.858;13.662;2022-11-20T02:27:39;1.27;;;1.20;;
31906;SDS011;18455;50.858;13.662;2022-11-20T02:32:40;2.93;;;1.77;;
31906;SDS011;18455;50.858;13.662;2022-11-20T02:37:40;4.50;;;2.47;;
31906;SDS011;18455;50.858;13.662;2022-11-20T02:42:41;3.90;;;2.07;;
31906;SDS011;18455;50.858;13.662;2022-11-20T02:47:41;1.80;;;1.63;;
31906;SDS011;18455;50.858;13.662;2022-11-20T02:52:41;3.87;;;2.07;;
31906;SDS011;18455;50.858;13.662;2022-11-20T02:57:42;4.67;;;2.87;;
31906;SDS011;18455;50.858;13.662;2022-11-20T03:02:42;4.53;;;2.77;;
31906;SDS011;18455;50.858;13.662;2022-11-20T03:07:43;5.07;;;3.10;;
31906;SDS011;18455;50.858;13.662;2022-11-20T03:12:43;5.03;;;2.73;;
31906;SDS011;18455;50.858;13.662;2022-11-20T03:17:44;5.53;;;2.90;;
31906;SDS011;18455;50.858;13.662;2022-11-20T03:22:44;4.57;;;3.37;;
31906;SDS011;18455;50.858;13.662;2022-11-20T03:27:44;6.17;;;3.50;;
31906;SDS011;18455;50.858;13.662;2022-11-20T03:32:45;4.63;;;2.83;;
31906;SDS011;18455;50.858;13.662;2022-11-20T03:37:45;5.20;;;2.63;;
31906;SDS011;18455;50.858;13.662;2022-11-20T03:42:46;4.33;;;2.77;;
31906;SDS011;18455;50.858;13.662;2022-11-20T03:47:46;5.40;;;2.37;;
31906;SDS011;18455;50.858;13.662;2022-11-20T03:52:47;2.00;;;1.50;;
31906;SDS011;18455;50.858;13.662;2022-11-20T03:57:47;4.40;;;2.80;;
31906;SDS011;18455;50.858;13.662;2022-11-20T04:02:47;2.37;;;1.80;;
31906;SDS011;18455;50.858;13.662;2022-11-20T04:07:48;4.70;;;2.57;;
31906;SDS011;18455;50.858;13.662;2022-11-20T04:12:48;2.63;;;2.13;;
31906;SDS011;18455;50.858;13.662;2022-11-20T04:17:48;4.70;;;3.10;;
31906;SDS011;18455;50.858;13.662;2022-11-20T04:22:49;5.17;;;2.87;;
31906;SDS011;18455;50.858;13.662;2022-11-20T04:27:53;4.37;;;3.40;;
31906;SDS011;18455;50.858;13.662;2022-11-20T04:32:53;6.67;;;4.50;;
31906;SDS011;18455;50.858;13.662;2022-11-20T04:37:54;4.80;;;2.57;;
31906;SDS011;18455;50.858;13.662;2022-11-20T04:42:54;5.10;;;3.57;;
31906;SDS011;18455;50.858;13.662;2022-11-20T04:47:55;10.30;;;5.17;;
31906;SDS011;18455;50.858;13.662;2022-11-20T04:52:55;12.43;;;6.43;;
31906;SDS011;18455;50.858;13.662;2022-11-20T04:57:55;11.47;;;5.47;;
31906;SDS011;18455;50.858;13.662;2022-11-20T05:02:56;10.23;;;5.60;;
31906;SDS011;18455;50.858;13.662;2022-11-20T05:07:57;8.27;;;4.73;;
31906;SDS011;18455;50.858;13.662;2022-11-20T05:12:57;6.87;;;4.13;;
31906;SDS011;18455;50.858;13.662;2022-11-20T05:17:57;8.23;;;3.73;;
31906;SDS011;18455;50.858;13.662;2022-11-20T05:22:58;7.40;;;4.13;;
31906;SDS011;18455;50.858;13.662;2022-11-20T05:27:58;11.47;;;4.60;;
31906;SDS011;18455;50.858;13.662;2022-11-20T05:32:59;17.73;;;7.60;;
31906;SDS011;18455;50.858;13.662;2022-11-20T05:37:59;10.47;;;5.73;;
31906;SDS011;18455;50.858;13.662;2022-11-20T05:43:00;4.70;;;3.33;;
31906;SDS011;18455;50.858;13.662;2022-11-20T05:48:00;13.93;;;7.00;;
31906;SDS011;18455;50.858;13.662;2022-11-20T05:53:01;16.03;;;7.30;;
31906;SDS011;18455;50.858;13.662;2022-11-20T05:58:01;15.03;;;7.77;;
31906;SDS011;18455;50.858;13.662;2022-11-20T06:03:02;12.50;;;6.20;;
31906;SDS011;18455;50.858;13.662;2022-11-20T06:08:02;12.10;;;6.70;;
31906;SDS011;18455;50.858;13.662;2022-11-20T06:13:02;8.53;;;5.07;;
31906;SDS011;18455;50.858;13.662;2022-11-20T06:18:03;10.20;;;4.77;;
31906;SDS011;18455;50.858;13.662;2022-11-20T06:23:03;10.13;;;4.67;;
31906;SDS011;18455;50.858;13.662;2022-11-20T06:28:04;11.13;;;5.97;;
31906;SDS011;18455;50.858;13.662;2022-11-20T06:33:04;16.47;;;8.30;;
31906;SDS011;18455;50.858;13.662;2022-11-20T06:38:04;17.63;;;9.17;;
31906;SDS011;18455;50.858;13.662;2022-11-20T06:43:05;12.10;;;6.70;;
31906;SDS011;18455;50.858;13.662;2022-11-20T06:48:05;15.40;;;7.50;;
31906;SDS011;18455;50.858;13.662;2022-11-20T06:53:05;13.43;;;6.20;;
31906;SDS011;18455;50.858;13.662;2022-11-20T06:58:06;13.20;;;6.13;;
31906;SDS011;18455;50.858;13.662;2022-11-20T07:03:07;11.77;;;5.70;;
31906;SDS011;18455;50.858;13.662;2022-11-20T07:08:08;11.13;;;5.47;;
31906;SDS011;18455;50.858;13.662;2022-11-20T07:13:09;16.73;;;8.10;;
31906;SDS011;18455;50.858;13.662;2022-11-20T07:18:09;15.93;;;8.23;;
31906;SDS011;18455;50.858;13.662;2022-11-20T07:23:09;22.67;;;9.90;;
31906;SDS011;18455;50.858;13.662;2022-11-20T07:28:10;20.87;;;10.10;;
31906;SDS011;18455;50.858;13.662;2022-11-20T07:33:10;19.63;;;9.53;;
31906;SDS011;18455;50.858;13.662;2022-11-20T07:38:11;17.23;;;9.10;;
31906;SDS011;18455;50.858;13.662;2022-11-20T07:43:11;21.10;;;9.90;;
31906;SDS011;18455;50.858;13.662;2022-11-20T07:48:12;18.73;;;8.53;;
31906;SDS011;18455;50.858;13.662;2022-11-20T07:53:12;15.23;;;7.50;;
31906;SDS011;18455;50.858;13.662;2022-11-20T07:58:13;13.20;;;7.10;;
31906;SDS011;18455;50.858;13.662;2022-11-20T08:03:14;11.17;;;6.63;;
31906;SDS011;18455;50.858;13.662;2022-11-20T08:08:14;11.00;;;6.10;;
31906;SDS011;18455;50.858;13.662;2022-11-20T08:13:15;12.60;;;6.63;;
31906;SDS011;18455;50.858;13.662;2022-11-20T08:18:33;11.90;;;6.27;;
31906;SDS011;18455;50.858;13.662;2022-11-20T08:23:34;11.83;;;6.43;;
31906;SDS011;18455;50.858;13.662;2022-11-20T08:28:34;9.40;;;6.13;;
31906;SDS011;18455;50.858;13.662;2022-11-20T08:33:35;7.27;;;4.17;;
31906;SDS011;18455;50.858;13.662;2022-11-20T08:38:35;8.27;;;4.97;;
31906;SDS011;18455;50.858;13.662;2022-11-20T08:43:35;6.67;;;4.00;;
31906;SDS011;18455;50.858;13.662;2022-11-20T08:48:36;8.33;;;5.20;;
31906;SDS011;18455;50.858;13.662;2022-11-20T08:53:36;7.20;;;4.30;;
31906;SDS011;18455;50.858;13.662;2022-11-20T08:58:37;7.17;;;4.77;;
31906;SDS011;18455;50.858;13.662;2022-11-20T09:03:38;7.70;;;4.30;;
31906;SDS011;18455;50.858;13.662;2022-11-20T09:08:39;9.37;;;4.40;;
31906;SDS011;18455;50.858;13.662;2022-11-20T09:13:39;5.90;;;3.80;;
31906;SDS011;18455;50.858;13.662;2022-11-20T09:18:40;40.60;;;17.07;;
31906;SDS011;18455;50.858;13.662;2022-11-20T09:23:40;224.17;;;72.37;;
31906;SDS011;18455;50.858;13.662;2022-11-20T09:28:41;47.20;;;19.97;;
31906;SDS011;18455;50.858;13.662;2022-11-20T09:33:41;7.33;;;4.97;;
31906;SDS011;18455;50.858;13.662;2022-11-20T09:38:42;16.23;;;9.30;;
31906;SDS011;18455;50.858;13.662;2022-11-20T09:49:27;5.23;;;3.70;;
31906;SDS011;18455;50.858;13.662;2022-11-20T09:54:37;5.40;;;3.27;;
31906;SDS011;18455;50.858;13.662;2022-11-20T09:59:42;4.97;;;3.90;;
31906;SDS011;18455;50.858;13.662;2022-11-20T10:04:45;5.60;;;4.10;;
31906;SDS011;18455;50.858;13.662;2022-11-20T10:09:51;6.43;;;3.80;;
31906;SDS011;18455;50.858;13.662;2022-11-20T10:25:16;5.83;;;3.50;;
31906;SDS011;18455;50.858;13.662;2022-11-20T10:30:18;6.70;;;4.30;;
31906;SDS011;18455;50.858;13.662;2022-11-20T10:35:23;4.67;;;3.13;;
31906;SDS011;18455;50.858;13.662;2022-11-20T10:45:36;3.13;;;2.63;;
31906;SDS011;18455;50.858;13.662;2022-11-20T10:56:08;6.00;;;3.30;;
31906;SDS011;18455;50.858;13.662;2022-11-20T11:01:20;3.33;;;2.60;;
31906;SDS011;18455;50.858;13.662;2022-11-20T11:11:27;9.40;;;5.22;;
31906;SDS011;18455;50.858;13.662;2022-11-20T11:16:29;6.57;;;4.10;;
31906;SDS011;18455;50.858;13.662;2022-11-20T11:21:29;11.17;;;5.83;;
31906;SDS011;18455;50.858;13.662;2022-11-20T11:26:30;12.20;;;6.37;;
31906;SDS011;18455;50.858;13.662;2022-11-20T11:31:34;7.87;;;4.87;;
31906;SDS011;18455;50.858;13.662;2022-11-20T11:36:35;11.07;;;6.90;;
31906;SDS011;18455;50.858;13.662;2022-11-20T11:41:35;10.83;;;5.87;;
31906;SDS011;18455;50.858;13.662;2022-11-20T11:46:36;9.93;;;5.77;;
31906;SDS011;18455;50.858;13.662;2022-11-20T12:19:40;11.50;;;6.60;;
31906;SDS011;18455;50.858;13.662;2022-11-20T12:30:15;14.57;;;7.87;;
31906;SDS011;18455;50.858;13.662;2022-11-20T12:51:34;15.33;;;8.57;;
31906;SDS011;18455;50.858;13.662;2022-11-20T13:06:55;15.67;;;9.10;;
31906;SDS011;18455;50.858;13.662;2022-11-20T13:12:10;19.27;;;10.40;;
31906;SDS011;18455;50.858;13.662;2022-11-20T13:17:19;19.10;;;10.20;;
31906;SDS011;18455;50.858;13.662;2022-11-20T13:22:28;21.13;;;10.80;;
31906;SDS011;18455;50.858;13.662;2022-11-20T13:27:29;24.23;;;12.27;;
31906;SDS011;18455;50.858;13.662;2022-11-20T13:32:31;25.20;;;11.07;;
31906;SDS011;18455;50.858;13.662;2022-11-20T13:37:33;27.97;;;12.77;;
31906;SDS011;18455;50.858;13.662;2022-11-20T13:42:35;24.20;;;12.00;;
31906;SDS011;18455;50.858;13.662;2022-11-20T13:47:46;29.07;;;13.47;;
31906;SDS011;18455;50.858;13.662;2022-11-20T13:52:56;36.93;;;18.17;;
31906;SDS011;18455;50.858;13.662;2022-11-20T13:58:07;27.43;;;13.10;;
31906;SDS011;18455;50.858;13.662;2022-11-20T14:03:31;30.93;;;14.47;;
31906;SDS011;18455;50.858;13.662;2022-11-20T14:08:36;30.50;;;14.00;;
31906;SDS011;18455;50.858;13.662;2022-11-20T14:13:39;34.83;;;15.30;;
31906;SDS011;18455;50.858;13.662;2022-11-20T14:18:39;32.73;;;15.23;;
31906;SDS011;18455;50.858;13.662;2022-11-20T14:23:41;29.30;;;13.30;;
31906;SDS011;18455;50.858;13.662;2022-11-20T14:28:43;35.63;;;17.03;;
31906;SDS011;18455;50.858;13.662;2022-11-20T14:33:52;39.63;;;17.80;;
31906;SDS011;18455;50.858;13.662;2022-11-20T14:38:53;37.33;;;17.00;;
31906;SDS011;18455;50.858;13.662;2022-11-20T14:43:55;24.87;;;12.87;;
31906;SDS011;18455;50.858;13.662;2022-11-20T14:48:57;25.87;;;12.77;;
31906;SDS011;18455;50.858;13.662;2022-11-20T14:59:21;13.13;;;8.03;;
31906;SDS011;18455;50.858;13.662;2022-11-20T15:04:23;13.13;;;8.27;;
31906;SDS011;18455;50.858;13.662;2022-11-20T15:09:23;13.70;;;7.73;;
31906;SDS011;18455;50.858;13.662;2022-11-20T15:14:24;15.53;;;9.63;;
31906;SDS011;18455;50.858;13.662;2022-11-20T15:19:25;15.13;;;7.77;;
31906;SDS011;18455;50.858;13.662;2022-11-20T15:24:26;13.73;;;8.97;;
31906;SDS011;18455;50.858;13.662;2022-11-20T15:29:27;12.83;;;7.73;;
31906;SDS011;18455;50.858;13.662;2022-11-20T15:34:27;14.73;;;8.80;;
31906;SDS011;18455;50.858;13.662;2022-11-20T15:39:28;13.83;;;8.20;;
31906;SDS011;18455;50.858;13.662;2022-11-20T15:44:28;15.47;;;8.60;;
31906;SDS011;18455;50.858;13.662;2022-11-20T15:49:29;18.40;;;8.93;;
31906;SDS011;18455;50.858;13.662;2022-11-20T15:54:29;14.47;;;9.07;;
31906;SDS011;18455;50.858;13.662;2022-11-20T15:59:30;16.73;;;9.87;;
31906;SDS011;18455;50.858;13.662;2022-11-20T16:04:31;16.47;;;9.90;;
31906;SDS011;18455;50.858;13.662;2022-11-20T16:09:31;16.77;;;9.83;;
31906;SDS011;18455;50.858;13.662;2022-11-20T16:14:32;15.23;;;10.07;;
31906;SDS011;18455;50.858;13.662;2022-11-20T16:19:51;22.43;;;13.00;;
31906;SDS011;18455;50.858;13.662;2022-11-20T16:24:51;22.30;;;12.53;;
31906;SDS011;18455;50.858;13.662;2022-11-20T16:29:52;24.73;;;12.03;;
31906;SDS011;18455;50.858;13.662;2022-11-20T16:34:53;19.33;;;11.93;;
31906;SDS011;18455;50.858;13.662;2022-11-20T16:39:53;19.97;;;11.20;;
31906;SDS011;18455;50.858;13.662;2022-11-20T16:44:54;20.07;;;11.43;;
31906;SDS011;18455;50.858;13.662;2022-11-20T16:49:54;17.47;;;8.00;;
31906;SDS011;18455;50.858;13.662;2022-11-20T16:54:54;16.03;;;8.40;;
31906;SDS011;18455;50.858;13.662;2022-11-20T16:59:55;14.60;;;9.03;;
31906;SDS011;18455;50.858;13.662;2022-11-20T17:04:55;16.40;;;9.87;;
31906;SDS011;18455;50.858;13.662;2022-11-20T17:09:56;15.93;;;8.73;;
31906;SDS011;18455;50.858;13.662;2022-11-20T17:14:57;19.87;;;11.30;;
31906;SDS011;18455;50.858;13.662;2022-11-20T17:19:57;17.87;;;11.00;;
31906;SDS011;18455;50.858;13.662;2022-11-20T17:24:57;21.73;;;11.67;;
31906;SDS011;18455;50.858;13.662;2022-11-20T17:29:58;34.87;;;19.10;;
31906;SDS011;18455;50.858;13.662;2022-11-20T17:34:59;22.10;;;12.30;;
31906;SDS011;18455;50.858;13.662;2022-11-20T17:39:59;18.27;;;10.43;;
31906;SDS011;18455;50.858;13.662;2022-11-20T17:44:59;15.93;;;7.87;;
31906;SDS011;18455;50.858;13.662;2022-11-20T17:50:00;21.67;;;12.03;;
31906;SDS011;18455;50.858;13.662;2022-11-20T17:55:00;24.57;;;14.43;;
31906;SDS011;18455;50.858;13.662;2022-11-20T18:00:00;28.50;;;14.87;;
31906;SDS011;18455;50.858;13.662;2022-11-20T18:05:01;21.13;;;12.03;;
31906;SDS011;18455;50.858;13.662;2022-11-20T18:10:01;25.30;;;12.70;;
31906;SDS011;18455;50.858;13.662;2022-11-20T18:15:02;25.20;;;14.90;;
31906;SDS011;18455;50.858;13.662;2022-11-20T18:20:02;28.77;;;14.80;;
31906;SDS011;18455;50.858;13.662;2022-11-20T18:25:03;26.63;;;14.53;;
31906;SDS011;18455;50.858;13.662;2022-11-20T18:30:04;26.10;;;15.50;;
31906;SDS011;18455;50.858;13.662;2022-11-20T18:35:05;20.60;;;12.37;;
31906;SDS011;18455;50.858;13.662;2022-11-20T18:40:06;19.57;;;11.97;;
31906;SDS011;18455;50.858;13.662;2022-11-20T18:45:06;15.03;;;9.17;;
31906;SDS011;18455;50.858;13.662;2022-11-20T18:50:07;18.00;;;10.50;;
31906;SDS011;18455;50.858;13.662;2022-11-20T18:55:08;16.40;;;10.43;;
31906;SDS011;18455;50.858;13.662;2022-11-20T19:00:09;22.47;;;10.73;;
31906;SDS011;18455;50.858;13.662;2022-11-20T19:05:10;54.03;;;23.27;;
31906;SDS011;18455;50.858;13.662;2022-11-20T19:10:10;16.00;;;9.50;;
31906;SDS011;18455;50.858;13.662;2022-11-20T19:15:11;52.10;;;20.60;;
31906;SDS011;18455;50.858;13.662;2022-11-20T19:20:11;116.50;;;34.60;;
31906;SDS011;18455;50.858;13.662;2022-11-20T19:25:12;156.83;;;46.57;;
31906;SDS011;18455;50.858;13.662;2022-11-20T19:30:13;25.67;;;12.97;;
31906;SDS011;18455;50.858;13.662;2022-11-20T19:35:13;18.57;;;10.73;;
31906;SDS011;18455;50.858;13.662;2022-11-20T19:40:14;22.50;;;12.87;;
31906;SDS011;18455;50.858;13.662;2022-11-20T19:45:14;30.00;;;13.67;;
31906;SDS011;18455;50.858;13.662;2022-11-20T19:50:14;34.83;;;18.63;;
31906;SDS011;18455;50.858;13.662;2022-11-20T19:55:15;27.20;;;14.33;;
31906;SDS011;18455;50.858;13.662;2022-11-20T20:00:16;22.43;;;12.17;;
31906;SDS011;18455;50.858;13.662;2022-11-20T20:05:16;56.03;;;23.33;;
31906;SDS011;18455;50.858;13.662;2022-11-20T20:10:17;41.57;;;19.03;;
31906;SDS011;18455;50.858;13.662;2022-11-20T20:15:19;46.53;;;21.00;;
31906;SDS011;18455;50.858;13.662;2022-11-20T20:20:19;25.83;;;14.20;;
31906;SDS011;18455;50.858;13.662;2022-11-20T20:25:20;41.03;;;19.27;;
31906;SDS011;18455;50.858;13.662;2022-11-20T20:30:20;18.50;;;11.50;;
31906;SDS011;18455;50.858;13.662;2022-11-20T20:35:21;20.20;;;10.77;;
31906;SDS011;18455;50.858;13.662;2022-11-20T20:40:21;19.67;;;10.80;;
31906;SDS011;18455;50.858;13.662;2022-11-20T20:45:21;16.10;;;8.23;;
31906;SDS011;18455;50.858;13.662;2022-11-20T20:50:22;20.43;;;9.57;;
31906;SDS011;18455;50.858;13.662;2022-11-20T20:55:22;18.37;;;10.00;;
31906;SDS011;18455;50.858;13.662;2022-11-20T21:00:23;15.67;;;10.13;;
31906;SDS011;18455;50.858;13.662;2022-11-20T21:05:23;13.87;;;8.87;;
31906;SDS011;18455;50.858;13.662;2022-11-20T21:10:24;16.80;;;8.67;;
31906;SDS011;18455;50.858;13.662;2022-11-20T21:15:24;12.30;;;7.17;;
31906;SDS011;18455;50.858;13.662;2022-11-20T21:20:24;14.03;;;7.27;;
31906;SDS011;18455;50.858;13.662;2022-11-20T21:26:01;7.47;;;4.47;;
31906;SDS011;18455;50.858;13.662;2022-11-20T21:31:07;11.43;;;6.80;;
31906;SDS011;18455;50.858;13.662;2022-11-20T21:36:10;11.37;;;6.37;;
31906;SDS011;18455;50.858;13.662;2022-11-20T21:41:12;10.67;;;7.60;;
31906;SDS011;18455;50.858;13.662;2022-11-20T21:46:14;14.93;;;7.87;;
31906;SDS011;18455;50.858;13.662;2022-11-20T21:51:16;11.67;;;7.30;;
31906;SDS011;18455;50.858;13.662;2022-11-20T21:56:18;13.57;;;8.60;;
31906;SDS011;18455;50.858;13.662;2022-11-20T22:01:21;10.47;;;6.27;;
31906;SDS011;18455;50.858;13.662;2022-11-20T22:06:28;10.47;;;6.20;;
31906;SDS011;18455;50.858;13.662;2022-11-20T22:11:31;12.00;;;6.37;;
31906;SDS011;18455;50.858;13.662;2022-11-20T22:16:32;9.83;;;6.00;;
31906;SDS011;18455;50.858;13.662;2022-11-20T22:21:34;10.27;;;5.57;;
31906;SDS011;18455;50.858;13.662;2022-11-20T22:26:34;11.67;;;7.27;;
31906;SDS011;18455;50.858;13.662;2022-11-20T22:31:35;11.03;;;7.47;;
31906;SDS011;18455;50.858;13.662;2022-11-20T22:36:36;14.83;;;7.10;;
31906;SDS011;18455;50.858;13.662;2022-11-20T22:41:37;11.70;;;6.70;;
31906;SDS011;18455;50.858;13.662;2022-11-20T22:46:37;12.00;;;6.63;;
31906;SDS011;18455;50.858;13.662;2022-11-20T22:51:39;13.03;;;7.60;;
31906;SDS011;18455;50.858;13.662;2022-11-20T22:56:40;13.37;;;7.87;;
31906;SDS011;18455;50.858;13.662;2022-11-20T23:01:40;13.27;;;8.33;;
31906;SDS011;18455;50.858;13.662;2022-11-20T23:06:41;13.33;;;8.37;;
31906;SDS011;18455;50.858;13.662;2022-11-20T23:11:41;14.13;;;8.53;;
31906;SDS011;18455;50.858;13.662;2022-11-20T23:16:42;13.97;;;8.40;;
31906;SDS011;18455;50.858;13.662;2022-11-20T23:21:42;14.40;;;9.23;;
31906;SDS011;18455;50.858;13.662;2022-11-20T23:26:42;14.83;;;9.40;;
31906;SDS011;18455;50.858;13.662;2022-11-20T23:31:44;16.10;;;8.67;;
31906;SDS011;18455;50.858;13.662;2022-11-20T23:36:44;15.17;;;9.53;;
31906;SDS011;18455;50.858;13.662;2022-11-20T23:41:44;13.10;;;8.07;;
31906;SDS011;18455;50.858;13.662;2022-11-20T23:46:45;17.30;;;10.13;;
31906;SDS011;18455;50.858;13.662;2022-11-20T23:51:45;17.07;;;10.27;;
31906;SDS011;18455;50.858;13.662;2022-11-20T23:56:46;17.73;;;10.13;;
